sensor_id;sensor_type;location;lat;lon;timestamp;P1;durP1;ratioP1;P2;durP2;ratioP2
39880;SDS011;25554;44.954;10.068;2022-09-03T00:01:58;5.90;;;4.18;;
39880;SDS011;25554;44.954;10.068;2022-09-03T00:04:29;5.93;;;4.60;;
39880;SDS011;25554;44.954;10.068;2022-09-03T00:07:00;8.82;;;4.78;;
39880;SDS011;25554;44.954;10.068;2022-09-03T00:09:35;8.20;;;5.10;;
39880;SDS011;25554;44.954;10.068;2022-09-03T00:12:09;5.60;;;4.80;;
39880;SDS011;25554;44.954;10.068;2022-09-03T00:14:45;5.95;;;4.97;;
39880;SDS011;25554;44.954;10.068;2022-09-03T00:17:21;6.80;;;5.18;;
39880;SDS011;25554;44.954;10.068;2022-09-03T00:19:58;5.70;;;5.00;;
39880;SDS011;25554;44.954;10.068;2022-09-03T00:22:33;7.90;;;5.32;;
39880;SDS011;25554;44.954;10.068;2022-09-03T00:25:08;6.57;;;4.85;;
39880;SDS011;25554;44.954;10.068;2022-09-03T00:27:39;6.35;;;4.57;;
39880;SDS011;25554;44.954;10.068;2022-09-03T00:30:09;6.68;;;4.72;;
39880;SDS011;25554;44.954;10.068;2022-09-03T00:32:39;5.60;;;4.93;;
39880;SDS011;25554;44.954;10.068;2022-09-03T00:35:34;6.60;;;5.03;;
39880;SDS011;25554;44.954;10.068;2022-09-03T00:38:07;5.75;;;4.80;;
39880;SDS011;25554;44.954;10.068;2022-09-03T00:45:59;9.85;;;5.55;;
39880;SDS011;25554;44.954;10.068;2022-09-03T00:56:42;6.10;;;5.50;;
39880;SDS011;25554;44.954;10.068;2022-09-03T01:05:12;5.47;;;4.95;;
39880;SDS011;25554;44.954;10.068;2022-09-03T01:21:12;7.32;;;6.53;;
39880;SDS011;25554;44.954;10.068;2022-09-03T01:29:34;10.07;;;8.15;;
39880;SDS011;25554;44.954;10.068;2022-09-03T01:35:09;12.20;;;8.07;;
39880;SDS011;25554;44.954;10.068;2022-09-03T01:46:31;8.35;;;7.50;;
39880;SDS011;25554;44.954;10.068;2022-09-03T01:49:15;7.97;;;7.18;;
39880;SDS011;25554;44.954;10.068;2022-09-03T01:51:50;12.95;;;8.57;;
39880;SDS011;25554;44.954;10.068;2022-09-03T01:54:42;9.63;;;8.63;;
39880;SDS011;25554;44.954;10.068;2022-09-03T01:59:43;8.82;;;7.90;;
39880;SDS011;25554;44.954;10.068;2022-09-03T02:02:21;9.18;;;7.53;;
39880;SDS011;25554;44.954;10.068;2022-09-03T02:04:59;10.25;;;7.55;;
39880;SDS011;25554;44.954;10.068;2022-09-03T02:07:32;8.40;;;7.60;;
39880;SDS011;25554;44.954;10.068;2022-09-03T02:10:00;8.57;;;7.65;;
39880;SDS011;25554;44.954;10.068;2022-09-03T02:12:30;10.27;;;7.97;;
39880;SDS011;25554;44.954;10.068;2022-09-03T02:14:59;9.43;;;8.25;;
39880;SDS011;25554;44.954;10.068;2022-09-03T02:17:31;8.82;;;7.45;;
39880;SDS011;25554;44.954;10.068;2022-09-03T02:20:01;8.85;;;7.95;;
39880;SDS011;25554;44.954;10.068;2022-09-03T02:22:31;9.68;;;8.48;;
39880;SDS011;25554;44.954;10.068;2022-09-03T02:24:59;8.15;;;7.35;;
39880;SDS011;25554;44.954;10.068;2022-09-03T02:27:26;12.75;;;8.60;;
39880;SDS011;25554;44.954;10.068;2022-09-03T02:32:18;8.77;;;7.70;;
39880;SDS011;25554;44.954;10.068;2022-09-03T02:34:45;10.27;;;9.18;;
39880;SDS011;25554;44.954;10.068;2022-09-03T02:37:13;11.52;;;9.40;;
39880;SDS011;25554;44.954;10.068;2022-09-03T02:39:40;11.27;;;10.05;;
39880;SDS011;25554;44.954;10.068;2022-09-03T02:42:07;11.68;;;10.43;;
39880;SDS011;25554;44.954;10.068;2022-09-03T02:44:38;15.80;;;10.20;;
39880;SDS011;25554;44.954;10.068;2022-09-03T02:47:09;11.90;;;10.80;;
39880;SDS011;25554;44.954;10.068;2022-09-03T02:52:06;12.45;;;11.25;;
39880;SDS011;25554;44.954;10.068;2022-09-03T02:54:37;11.70;;;10.63;;
39880;SDS011;25554;44.954;10.068;2022-09-03T02:57:08;11.45;;;10.25;;
39880;SDS011;25554;44.954;10.068;2022-09-03T02:59:36;12.40;;;10.85;;
39880;SDS011;25554;44.954;10.068;2022-09-03T03:02:04;13.70;;;12.30;;
39880;SDS011;25554;44.954;10.068;2022-09-03T03:04:31;13.00;;;11.73;;
39880;SDS011;25554;44.954;10.068;2022-09-03T03:06:57;13.15;;;11.85;;
39880;SDS011;25554;44.954;10.068;2022-09-03T03:09:24;13.68;;;12.38;;
39880;SDS011;25554;44.954;10.068;2022-09-03T03:14:19;14.30;;;12.52;;
39880;SDS011;25554;44.954;10.068;2022-09-03T03:16:47;15.02;;;13.07;;
39880;SDS011;25554;44.954;10.068;2022-09-03T03:19:14;16.02;;;12.73;;
39880;SDS011;25554;44.954;10.068;2022-09-03T03:24:06;14.38;;;12.30;;
39880;SDS011;25554;44.954;10.068;2022-09-03T03:26:33;15.15;;;12.00;;
39880;SDS011;25554;44.954;10.068;2022-09-03T03:29:00;14.60;;;13.20;;
39880;SDS011;25554;44.954;10.068;2022-09-03T03:31:29;14.82;;;13.32;;
39880;SDS011;25554;44.954;10.068;2022-09-03T03:33:56;12.23;;;11.10;;
39880;SDS011;25554;44.954;10.068;2022-09-03T03:36:25;12.27;;;11.07;;
39880;SDS011;25554;44.954;10.068;2022-09-03T03:38:54;13.77;;;11.52;;
39880;SDS011;25554;44.954;10.068;2022-09-03T03:41:22;11.45;;;10.27;;
39880;SDS011;25554;44.954;10.068;2022-09-03T03:43:53;12.55;;;10.98;;
39880;SDS011;25554;44.954;10.068;2022-09-03T03:46:21;12.35;;;11.15;;
39880;SDS011;25554;44.954;10.068;2022-09-03T03:48:49;12.68;;;11.48;;
39880;SDS011;25554;44.954;10.068;2022-09-03T03:51:16;11.63;;;10.50;;
39880;SDS011;25554;44.954;10.068;2022-09-03T03:53:43;12.50;;;11.30;;
39880;SDS011;25554;44.954;10.068;2022-09-03T04:01:09;13.95;;;10.15;;
39880;SDS011;25554;44.954;10.068;2022-09-03T04:03:40;11.43;;;10.23;;
39880;SDS011;25554;44.954;10.068;2022-09-03T04:06:07;11.18;;;10.07;;
39880;SDS011;25554;44.954;10.068;2022-09-03T04:08:39;13.52;;;10.90;;
39880;SDS011;25554;44.954;10.068;2022-09-03T04:11:08;13.25;;;10.82;;
39880;SDS011;25554;44.954;10.068;2022-09-03T04:13:36;13.40;;;10.45;;
39880;SDS011;25554;44.954;10.068;2022-09-03T04:16:08;13.15;;;11.10;;
39880;SDS011;25554;44.954;10.068;2022-09-03T04:18:45;14.07;;;11.20;;
39880;SDS011;25554;44.954;10.068;2022-09-03T04:21:14;14.20;;;11.50;;
39880;SDS011;25554;44.954;10.068;2022-09-03T04:23:52;12.52;;;11.20;;
39880;SDS011;25554;44.954;10.068;2022-09-03T04:26:19;12.07;;;10.88;;
39880;SDS011;25554;44.954;10.068;2022-09-03T04:28:47;11.32;;;10.20;;
39880;SDS011;25554;44.954;10.068;2022-09-03T04:31:15;17.92;;;9.80;;
39880;SDS011;25554;44.954;10.068;2022-09-03T04:33:43;10.93;;;9.82;;
39880;SDS011;25554;44.954;10.068;2022-09-03T04:38:36;10.27;;;8.85;;
39880;SDS011;25554;44.954;10.068;2022-09-03T04:41:04;11.43;;;9.52;;
39880;SDS011;25554;44.954;10.068;2022-09-03T04:43:32;10.35;;;9.00;;
39880;SDS011;25554;44.954;10.068;2022-09-03T04:46:00;9.50;;;8.40;;
39880;SDS011;25554;44.954;10.068;2022-09-03T04:48:28;14.45;;;8.93;;
39880;SDS011;25554;44.954;10.068;2022-09-03T04:51:00;10.25;;;9.13;;
39880;SDS011;25554;44.954;10.068;2022-09-03T04:53:33;10.68;;;9.55;;
39880;SDS011;25554;44.954;10.068;2022-09-03T04:56:01;8.35;;;7.45;;
39880;SDS011;25554;44.954;10.068;2022-09-03T04:58:28;9.68;;;7.72;;
39880;SDS011;25554;44.954;10.068;2022-09-03T05:00:55;8.55;;;7.20;;
39880;SDS011;25554;44.954;10.068;2022-09-03T05:03:22;8.15;;;7.03;;
39880;SDS011;25554;44.954;10.068;2022-09-03T05:08:19;9.13;;;6.65;;
39880;SDS011;25554;44.954;10.068;2022-09-03T05:10:46;8.10;;;6.93;;
39880;SDS011;25554;44.954;10.068;2022-09-03T05:13:12;7.53;;;6.82;;
39880;SDS011;25554;44.954;10.068;2022-09-03T05:18:08;9.32;;;7.03;;
39880;SDS011;25554;44.954;10.068;2022-09-03T05:23:01;7.03;;;6.32;;
39880;SDS011;25554;44.954;10.068;2022-09-03T05:25:28;9.68;;;7.68;;
39880;SDS011;25554;44.954;10.068;2022-09-03T05:27:58;9.25;;;6.47;;
39880;SDS011;25554;44.954;10.068;2022-09-03T05:30:24;10.05;;;7.22;;
39880;SDS011;25554;44.954;10.068;2022-09-03T05:32:51;9.55;;;7.45;;
39880;SDS011;25554;44.954;10.068;2022-09-03T05:35:20;7.78;;;6.72;;
39880;SDS011;25554;44.954;10.068;2022-09-03T05:37:47;8.23;;;7.18;;
39880;SDS011;25554;44.954;10.068;2022-09-03T05:42:39;8.18;;;6.90;;
39880;SDS011;25554;44.954;10.068;2022-09-03T05:47:38;9.63;;;6.43;;
39880;SDS011;25554;44.954;10.068;2022-09-03T05:50:05;7.95;;;6.97;;
39880;SDS011;25554;44.954;10.068;2022-09-03T05:52:33;8.20;;;6.90;;
39880;SDS011;25554;44.954;10.068;2022-09-03T05:55:00;7.22;;;6.53;;
39880;SDS011;25554;44.954;10.068;2022-09-03T05:57:27;10.32;;;6.32;;
39880;SDS011;25554;44.954;10.068;2022-09-03T05:59:55;8.70;;;6.53;;
39880;SDS011;25554;44.954;10.068;2022-09-03T06:02:22;7.47;;;6.78;;
39880;SDS011;25554;44.954;10.068;2022-09-03T06:04:48;8.30;;;6.75;;
39880;SDS011;25554;44.954;10.068;2022-09-03T06:07:15;9.60;;;7.38;;
39880;SDS011;25554;44.954;10.068;2022-09-03T06:12:08;9.98;;;7.80;;
39880;SDS011;25554;44.954;10.068;2022-09-03T06:14:34;14.82;;;7.88;;
39880;SDS011;25554;44.954;10.068;2022-09-03T06:19:27;9.43;;;7.32;;
39880;SDS011;25554;44.954;10.068;2022-09-03T06:24:20;11.13;;;8.20;;
39880;SDS011;25554;44.954;10.068;2022-09-03T06:26:48;8.48;;;7.68;;
39880;SDS011;25554;44.954;10.068;2022-09-03T06:29:14;8.00;;;7.20;;
39880;SDS011;25554;44.954;10.068;2022-09-03T06:31:43;11.68;;;8.13;;
39880;SDS011;25554;44.954;10.068;2022-09-03T06:34:10;11.15;;;7.57;;
39880;SDS011;25554;44.954;10.068;2022-09-03T06:36:37;9.60;;;7.47;;
39880;SDS011;25554;44.954;10.068;2022-09-03T06:41:30;10.75;;;6.53;;
39880;SDS011;25554;44.954;10.068;2022-09-03T06:44:00;11.07;;;6.57;;
39880;SDS011;25554;44.954;10.068;2022-09-03T06:46:31;8.73;;;6.75;;
39880;SDS011;25554;44.954;10.068;2022-09-03T06:48:59;8.98;;;7.07;;
39880;SDS011;25554;44.954;10.068;2022-09-03T06:51:26;8.10;;;7.30;;
39880;SDS011;25554;44.954;10.068;2022-09-03T06:53:58;9.80;;;7.75;;
39880;SDS011;25554;44.954;10.068;2022-09-03T06:56:26;10.98;;;7.03;;
39880;SDS011;25554;44.954;10.068;2022-09-03T06:58:53;9.35;;;7.82;;
39880;SDS011;25554;44.954;10.068;2022-09-03T07:01:24;7.47;;;6.50;;
39880;SDS011;25554;44.954;10.068;2022-09-03T07:03:56;12.93;;;8.45;;
39880;SDS011;25554;44.954;10.068;2022-09-03T07:06:26;12.63;;;8.57;;
39880;SDS011;25554;44.954;10.068;2022-09-03T07:08:54;9.80;;;8.80;;
39880;SDS011;25554;44.954;10.068;2022-09-03T07:11:23;11.50;;;9.00;;
39880;SDS011;25554;44.954;10.068;2022-09-03T07:13:52;12.27;;;8.65;;
39880;SDS011;25554;44.954;10.068;2022-09-03T07:16:27;10.48;;;8.80;;
39880;SDS011;25554;44.954;10.068;2022-09-03T07:18:55;8.98;;;8.07;;
39880;SDS011;25554;44.954;10.068;2022-09-03T07:21:23;7.95;;;7.22;;
39880;SDS011;25554;44.954;10.068;2022-09-03T07:23:51;11.00;;;8.88;;
39880;SDS011;25554;44.954;10.068;2022-09-03T07:26:22;15.35;;;8.23;;
39880;SDS011;25554;44.954;10.068;2022-09-03T07:28:51;11.18;;;7.20;;
39880;SDS011;25554;44.954;10.068;2022-09-03T07:31:23;10.48;;;7.00;;
39880;SDS011;25554;44.954;10.068;2022-09-03T07:33:57;7.93;;;7.13;;
39880;SDS011;25554;44.954;10.068;2022-09-03T07:36:26;7.97;;;7.28;;
39880;SDS011;25554;44.954;10.068;2022-09-03T07:38:54;9.88;;;7.60;;
39880;SDS011;25554;44.954;10.068;2022-09-03T07:41:23;8.35;;;7.35;;
39880;SDS011;25554;44.954;10.068;2022-09-03T07:43:51;7.10;;;6.30;;
39880;SDS011;25554;44.954;10.068;2022-09-03T07:46:22;7.47;;;5.60;;
39880;SDS011;25554;44.954;10.068;2022-09-03T07:48:53;6.28;;;5.68;;
39880;SDS011;25554;44.954;10.068;2022-09-03T07:51:22;9.05;;;7.40;;
39880;SDS011;25554;44.954;10.068;2022-09-03T07:53:52;8.70;;;7.03;;
39880;SDS011;25554;44.954;10.068;2022-09-03T07:56:20;7.88;;;7.07;;
39880;SDS011;25554;44.954;10.068;2022-09-03T07:58:47;9.02;;;6.32;;
39880;SDS011;25554;44.954;10.068;2022-09-03T08:01:15;7.97;;;7.18;;
39880;SDS011;25554;44.954;10.068;2022-09-03T08:03:44;8.68;;;7.57;;
39880;SDS011;25554;44.954;10.068;2022-09-03T08:06:12;10.32;;;7.88;;
39880;SDS011;25554;44.954;10.068;2022-09-03T08:08:40;9.13;;;7.22;;
39880;SDS011;25554;44.954;10.068;2022-09-03T08:11:13;8.35;;;7.45;;
39880;SDS011;25554;44.954;10.068;2022-09-03T08:13:46;10.13;;;9.13;;
39880;SDS011;25554;44.954;10.068;2022-09-03T08:16:37;10.13;;;9.07;;
39880;SDS011;25554;44.954;10.068;2022-09-03T08:19:04;13.52;;;9.38;;
39880;SDS011;25554;44.954;10.068;2022-09-03T08:21:32;9.43;;;8.43;;
39880;SDS011;25554;44.954;10.068;2022-09-03T08:23:58;9.05;;;8.20;;
39880;SDS011;25554;44.954;10.068;2022-09-03T08:26:29;9.48;;;8.48;;
39880;SDS011;25554;44.954;10.068;2022-09-03T08:28:56;11.30;;;9.35;;
39880;SDS011;25554;44.954;10.068;2022-09-03T08:31:23;9.30;;;8.40;;
39880;SDS011;25554;44.954;10.068;2022-09-03T08:33:52;10.68;;;8.82;;
39880;SDS011;25554;44.954;10.068;2022-09-03T08:36:20;10.27;;;8.43;;
39880;SDS011;25554;44.954;10.068;2022-09-03T08:38:57;8.70;;;7.50;;
39880;SDS011;25554;44.954;10.068;2022-09-03T08:49:47;9.68;;;6.88;;
39880;SDS011;25554;44.954;10.068;2022-09-03T08:52:28;8.00;;;7.28;;
39880;SDS011;25554;44.954;10.068;2022-09-03T08:58:12;10.07;;;8.85;;
39880;SDS011;25554;44.954;10.068;2022-09-03T09:00:41;11.85;;;7.68;;
39880;SDS011;25554;44.954;10.068;2022-09-03T09:14:03;8.07;;;7.30;;
39880;SDS011;25554;44.954;10.068;2022-09-03T09:16:49;8.32;;;7.63;;
39880;SDS011;25554;44.954;10.068;2022-09-03T09:21:55;26.50;;;9.43;;
39880;SDS011;25554;44.954;10.068;2022-09-03T09:24:27;12.18;;;7.60;;
39880;SDS011;25554;44.954;10.068;2022-09-03T09:27:02;14.20;;;7.97;;
39880;SDS011;25554;44.954;10.068;2022-09-03T09:29:31;9.93;;;8.65;;
39880;SDS011;25554;44.954;10.068;2022-09-03T09:32:00;11.05;;;9.35;;
39880;SDS011;25554;44.954;10.068;2022-09-03T09:34:27;9.25;;;8.30;;
39880;SDS011;25554;44.954;10.068;2022-09-03T09:36:54;10.45;;;8.45;;
39880;SDS011;25554;44.954;10.068;2022-09-03T09:39:21;9.88;;;8.88;;
39880;SDS011;25554;44.954;10.068;2022-09-03T09:44:35;8.82;;;7.97;;
39880;SDS011;25554;44.954;10.068;2022-09-03T09:47:05;9.38;;;7.57;;
39880;SDS011;25554;44.954;10.068;2022-09-03T09:49:56;7.47;;;6.78;;
39880;SDS011;25554;44.954;10.068;2022-09-03T09:52:25;9.50;;;7.75;;
39880;SDS011;25554;44.954;10.068;2022-09-03T09:55:05;9.00;;;8.07;;
39880;SDS011;25554;44.954;10.068;2022-09-03T09:57:33;8.95;;;8.05;;
39880;SDS011;25554;44.954;10.068;2022-09-03T10:00:06;7.80;;;7.10;;
39880;SDS011;25554;44.954;10.068;2022-09-03T10:02:38;8.23;;;7.50;;
39880;SDS011;25554;44.954;10.068;2022-09-03T10:07:56;7.80;;;7.07;;
39880;SDS011;25554;44.954;10.068;2022-09-03T10:10:25;8.10;;;7.30;;
39880;SDS011;25554;44.954;10.068;2022-09-03T10:13:00;9.40;;;8.40;;
39880;SDS011;25554;44.954;10.068;2022-09-03T10:21:03;8.68;;;7.22;;
39880;SDS011;25554;44.954;10.068;2022-09-03T10:23:45;10.45;;;8.85;;
39880;SDS011;25554;44.954;10.068;2022-09-03T10:26:23;14.70;;;7.78;;
39880;SDS011;25554;44.954;10.068;2022-09-03T10:28:55;9.52;;;8.63;;
39880;SDS011;25554;44.954;10.068;2022-09-03T10:34:33;10.70;;;8.05;;
39880;SDS011;25554;44.954;10.068;2022-09-03T10:39:51;8.50;;;7.70;;
39880;SDS011;25554;44.954;10.068;2022-09-03T10:52:36;10.95;;;8.40;;
39880;SDS011;25554;44.954;10.068;2022-09-03T10:58:29;12.07;;;9.35;;
39880;SDS011;25554;44.954;10.068;2022-09-03T11:06:28;10.90;;;9.75;;
39880;SDS011;25554;44.954;10.068;2022-09-03T11:08:59;11.90;;;10.75;;
39880;SDS011;25554;44.954;10.068;2022-09-03T11:11:50;11.93;;;10.82;;
39880;SDS011;25554;44.954;10.068;2022-09-03T11:14:33;13.48;;;10.05;;
39880;SDS011;25554;44.954;10.068;2022-09-03T11:17:06;11.27;;;10.05;;
39880;SDS011;25554;44.954;10.068;2022-09-03T11:19:42;11.25;;;10.15;;
39880;SDS011;25554;44.954;10.068;2022-09-03T11:22:13;10.82;;;9.73;;
39880;SDS011;25554;44.954;10.068;2022-09-03T11:24:43;10.20;;;9.20;;
39880;SDS011;25554;44.954;10.068;2022-09-03T11:27:24;9.57;;;8.68;;
39880;SDS011;25554;44.954;10.068;2022-09-03T11:30:07;9.40;;;8.48;;
39880;SDS011;25554;44.954;10.068;2022-09-03T11:35:13;9.73;;;8.52;;
39880;SDS011;25554;44.954;10.068;2022-09-03T11:37:51;12.98;;;9.27;;
39880;SDS011;25554;44.954;10.068;2022-09-03T11:43:44;11.00;;;8.93;;
39880;SDS011;25554;44.954;10.068;2022-09-03T11:45:48;9.43;;;7.95;;
39880;SDS011;25554;44.954;10.068;2022-09-03T11:48:27;9.75;;;8.63;;
39880;SDS011;25554;44.954;10.068;2022-09-03T11:51:02;10.20;;;6.88;;
39880;SDS011;25554;44.954;10.068;2022-09-03T11:53:33;9.98;;;7.07;;
39880;SDS011;25554;44.954;10.068;2022-09-03T11:58:32;8.05;;;7.00;;
39880;SDS011;25554;44.954;10.068;2022-09-03T12:01:12;8.23;;;7.38;;
39880;SDS011;25554;44.954;10.068;2022-09-03T12:03:43;10.05;;;7.43;;
39880;SDS011;25554;44.954;10.068;2022-09-03T12:11:55;8.70;;;7.80;;
39880;SDS011;25554;44.954;10.068;2022-09-03T12:20:47;9.10;;;7.10;;
39880;SDS011;25554;44.954;10.068;2022-09-03T12:25:52;11.13;;;6.93;;
39880;SDS011;25554;44.954;10.068;2022-09-03T12:28:21;7.03;;;6.30;;
39880;SDS011;25554;44.954;10.068;2022-09-03T12:30:50;8.43;;;7.15;;
39880;SDS011;25554;44.954;10.068;2022-09-03T12:33:19;7.35;;;6.57;;
39880;SDS011;25554;44.954;10.068;2022-09-03T12:35:56;7.68;;;6.40;;
39880;SDS011;25554;44.954;10.068;2022-09-03T12:38:27;7.13;;;6.43;;
39880;SDS011;25554;44.954;10.068;2022-09-03T12:40:58;7.93;;;6.63;;
39880;SDS011;25554;44.954;10.068;2022-09-03T12:43:26;8.48;;;7.07;;
39880;SDS011;25554;44.954;10.068;2022-09-03T12:45:54;11.75;;;7.93;;
39880;SDS011;25554;44.954;10.068;2022-09-03T12:48:20;9.57;;;8.57;;
39880;SDS011;25554;44.954;10.068;2022-09-03T12:50:48;9.65;;;8.75;;
39880;SDS011;25554;44.954;10.068;2022-09-03T12:53:26;9.60;;;8.25;;
39880;SDS011;25554;44.954;10.068;2022-09-03T12:55:56;10.95;;;8.52;;
39880;SDS011;25554;44.954;10.068;2022-09-03T12:58:37;12.40;;;9.35;;
39880;SDS011;25554;44.954;10.068;2022-09-03T13:01:28;13.13;;;10.30;;
39880;SDS011;25554;44.954;10.068;2022-09-03T13:04:08;11.98;;;9.50;;
39880;SDS011;25554;44.954;10.068;2022-09-03T13:09:09;12.43;;;11.00;;
39880;SDS011;25554;44.954;10.068;2022-09-03T13:11:35;12.18;;;10.88;;
39880;SDS011;25554;44.954;10.068;2022-09-03T13:14:03;17.33;;;12.85;;
39880;SDS011;25554;44.954;10.068;2022-09-03T13:46:44;17.58;;;15.07;;
39880;SDS011;25554;44.954;10.068;2022-09-03T13:51:59;17.20;;;15.13;;
39880;SDS011;25554;44.954;10.068;2022-09-03T13:54:51;20.20;;;16.45;;
39880;SDS011;25554;44.954;10.068;2022-09-03T13:57:32;19.73;;;16.75;;
39880;SDS011;25554;44.954;10.068;2022-09-03T14:00:06;18.17;;;16.30;;
39880;SDS011;25554;44.954;10.068;2022-09-03T14:05:30;18.23;;;15.55;;
39880;SDS011;25554;44.954;10.068;2022-09-03T14:08:31;17.42;;;15.60;;
39880;SDS011;25554;44.954;10.068;2022-09-03T14:11:22;19.80;;;16.38;;
39880;SDS011;25554;44.954;10.068;2022-09-03T14:17:05;16.90;;;14.20;;
39880;SDS011;25554;44.954;10.068;2022-09-03T14:24:43;21.67;;;16.92;;
39880;SDS011;25554;44.954;10.068;2022-09-03T14:27:30;17.77;;;16.00;;
39880;SDS011;25554;44.954;10.068;2022-09-03T14:30:03;18.33;;;16.52;;
39880;SDS011;25554;44.954;10.068;2022-09-03T14:35:30;14.43;;;13.02;;
39880;SDS011;25554;44.954;10.068;2022-09-03T14:38:31;14.32;;;12.90;;
39880;SDS011;25554;44.954;10.068;2022-09-03T14:54:49;16.52;;;15.05;;
39880;SDS011;25554;44.954;10.068;2022-09-03T15:00:15;19.33;;;15.95;;
39880;SDS011;25554;44.954;10.068;2022-09-03T15:11:02;16.75;;;15.07;;
39880;SDS011;25554;44.954;10.068;2022-09-03T15:27:12;19.55;;;17.65;;
39880;SDS011;25554;44.954;10.068;2022-09-03T15:30:18;13.05;;;11.85;;
39880;SDS011;25554;44.954;10.068;2022-09-03T15:38:19;16.58;;;14.85;;
39880;SDS011;25554;44.954;10.068;2022-09-03T15:41:01;19.33;;;17.55;;
39880;SDS011;25554;44.954;10.068;2022-09-03T15:43:34;16.80;;;15.00;;
39880;SDS011;25554;44.954;10.068;2022-09-03T15:46:01;13.85;;;12.60;;
39880;SDS011;25554;44.954;10.068;2022-09-03T15:51:27;16.40;;;14.82;;
39880;SDS011;25554;44.954;10.068;2022-09-03T15:54:00;16.83;;;14.98;;
39880;SDS011;25554;44.954;10.068;2022-09-03T15:56:39;18.25;;;16.35;;
39880;SDS011;25554;44.954;10.068;2022-09-03T15:59:25;17.63;;;15.98;;
39880;SDS011;25554;44.954;10.068;2022-09-03T16:02:15;17.75;;;16.05;;
39880;SDS011;25554;44.954;10.068;2022-09-03T16:04:54;14.73;;;13.38;;
39880;SDS011;25554;44.954;10.068;2022-09-03T16:10:13;19.05;;;17.15;;
39880;SDS011;25554;44.954;10.068;2022-09-03T16:15:35;19.35;;;17.25;;
39880;SDS011;25554;44.954;10.068;2022-09-03T16:20:56;16.73;;;14.98;;
39880;SDS011;25554;44.954;10.068;2022-09-03T16:29:13;21.35;;;19.20;;
39880;SDS011;25554;44.954;10.068;2022-09-03T16:31:45;14.65;;;13.10;;
39880;SDS011;25554;44.954;10.068;2022-09-03T16:45:25;15.25;;;13.35;;
39880;SDS011;25554;44.954;10.068;2022-09-03T16:59:28;13.20;;;11.80;;
39880;SDS011;25554;44.954;10.068;2022-09-03T17:21:36;18.02;;;16.13;;
39880;SDS011;25554;44.954;10.068;2022-09-03T17:24:14;20.42;;;18.33;;
39880;SDS011;25554;44.954;10.068;2022-09-03T17:30:07;15.25;;;13.65;;
39880;SDS011;25554;44.954;10.068;2022-09-03T17:35:37;17.63;;;15.95;;
39880;SDS011;25554;44.954;10.068;2022-09-03T17:49:24;15.82;;;14.30;;
39880;SDS011;25554;44.954;10.068;2022-09-03T17:59:44;17.17;;;15.57;;
39880;SDS011;25554;44.954;10.068;2022-09-03T18:09:45;14.95;;;13.55;;
39880;SDS011;25554;44.954;10.068;2022-09-03T18:14:50;14.85;;;13.32;;
39880;SDS011;25554;44.954;10.068;2022-09-03T18:17:24;20.67;;;18.10;;
39880;SDS011;25554;44.954;10.068;2022-09-03T18:19:54;17.58;;;15.52;;
39880;SDS011;25554;44.954;10.068;2022-09-03T18:22:47;17.70;;;15.80;;
39880;SDS011;25554;44.954;10.068;2022-09-03T18:25:34;19.17;;;15.82;;
39880;SDS011;25554;44.954;10.068;2022-09-03T18:28:26;19.90;;;17.73;;
39880;SDS011;25554;44.954;10.068;2022-09-03T18:31:13;19.98;;;17.20;;
39880;SDS011;25554;44.954;10.068;2022-09-03T18:34:01;18.83;;;16.92;;
39880;SDS011;25554;44.954;10.068;2022-09-03T18:36:47;16.80;;;15.03;;
39880;SDS011;25554;44.954;10.068;2022-09-03T18:39:32;15.30;;;13.77;;
39880;SDS011;25554;44.954;10.068;2022-09-03T18:45:30;18.58;;;16.70;;
39880;SDS011;25554;44.954;10.068;2022-09-03T18:48:35;18.27;;;16.58;;
39880;SDS011;25554;44.954;10.068;2022-09-03T18:51:35;21.95;;;18.02;;
39880;SDS011;25554;44.954;10.068;2022-09-03T18:54:36;19.50;;;17.45;;
39880;SDS011;25554;44.954;10.068;2022-09-03T18:57:25;22.45;;;18.52;;
39880;SDS011;25554;44.954;10.068;2022-09-03T19:00:12;21.50;;;19.17;;
39880;SDS011;25554;44.954;10.068;2022-09-03T19:08:47;21.70;;;19.48;;
39880;SDS011;25554;44.954;10.068;2022-09-03T19:14:55;19.25;;;17.13;;
39880;SDS011;25554;44.954;10.068;2022-09-03T19:18:04;17.73;;;16.02;;
39880;SDS011;25554;44.954;10.068;2022-09-03T19:24:08;22.80;;;20.58;;
39880;SDS011;25554;44.954;10.068;2022-09-03T19:33:10;20.90;;;18.73;;
39880;SDS011;25554;44.954;10.068;2022-09-03T19:42:02;21.27;;;19.25;;
39880;SDS011;25554;44.954;10.068;2022-09-03T19:48:07;22.02;;;19.88;;
39880;SDS011;25554;44.954;10.068;2022-09-03T19:51:20;20.73;;;18.73;;
39880;SDS011;25554;44.954;10.068;2022-09-03T19:54:09;25.00;;;22.50;;
39880;SDS011;25554;44.954;10.068;2022-09-03T19:56:54;24.70;;;22.30;;
39880;SDS011;25554;44.954;10.068;2022-09-03T19:59:41;25.77;;;23.25;;
39880;SDS011;25554;44.954;10.068;2022-09-03T20:02:38;23.00;;;20.83;;
39880;SDS011;25554;44.954;10.068;2022-09-03T20:05:24;24.30;;;22.02;;
39880;SDS011;25554;44.954;10.068;2022-09-03T20:08:12;23.40;;;20.98;;
39880;SDS011;25554;44.954;10.068;2022-09-03T20:11:01;23.13;;;20.83;;
39880;SDS011;25554;44.954;10.068;2022-09-03T20:13:28;21.42;;;19.42;;
39880;SDS011;25554;44.954;10.068;2022-09-03T20:16:17;23.35;;;21.00;;
39880;SDS011;25554;44.954;10.068;2022-09-03T20:19:03;20.00;;;18.10;;
39880;SDS011;25554;44.954;10.068;2022-09-03T20:21:48;18.67;;;16.77;;
39880;SDS011;25554;44.954;10.068;2022-09-03T20:30:35;20.70;;;18.60;;
39880;SDS011;25554;44.954;10.068;2022-09-03T20:43:31;19.13;;;17.17;;
39880;SDS011;25554;44.954;10.068;2022-09-03T20:46:17;19.58;;;17.75;;
39880;SDS011;25554;44.954;10.068;2022-09-03T20:49:22;22.10;;;19.88;;
39880;SDS011;25554;44.954;10.068;2022-09-03T20:52:07;22.58;;;20.35;;
39880;SDS011;25554;44.954;10.068;2022-09-03T20:57:35;23.13;;;20.75;;
39880;SDS011;25554;44.954;10.068;2022-09-03T21:00:19;19.58;;;17.73;;
39880;SDS011;25554;44.954;10.068;2022-09-03T21:10:57;21.85;;;19.30;;
39880;SDS011;25554;44.954;10.068;2022-09-03T21:18:58;20.90;;;18.98;;
39880;SDS011;25554;44.954;10.068;2022-09-03T21:24:46;22.80;;;20.50;;
39880;SDS011;25554;44.954;10.068;2022-09-03T21:27:25;21.70;;;19.60;;
39880;SDS011;25554;44.954;10.068;2022-09-03T21:30:04;22.52;;;20.25;;
39880;SDS011;25554;44.954;10.068;2022-09-03T21:32:34;20.27;;;18.13;;
39880;SDS011;25554;44.954;10.068;2022-09-03T21:35:15;20.90;;;18.90;;
39880;SDS011;25554;44.954;10.068;2022-09-03T21:37:58;18.58;;;16.73;;
39880;SDS011;25554;44.954;10.068;2022-09-03T21:40:31;19.40;;;17.50;;
39880;SDS011;25554;44.954;10.068;2022-09-03T21:43:10;18.48;;;16.58;;
39880;SDS011;25554;44.954;10.068;2022-09-03T21:45:45;16.88;;;14.57;;
39880;SDS011;25554;44.954;10.068;2022-09-03T21:51:13;16.10;;;14.50;;
39880;SDS011;25554;44.954;10.068;2022-09-03T21:54:18;15.73;;;14.05;;
39880;SDS011;25554;44.954;10.068;2022-09-03T21:56:59;15.93;;;14.52;;
39880;SDS011;25554;44.954;10.068;2022-09-03T22:02:38;17.25;;;15.00;;
39880;SDS011;25554;44.954;10.068;2022-09-03T22:05:05;15.63;;;14.02;;
39880;SDS011;25554;44.954;10.068;2022-09-03T22:15:34;20.00;;;16.38;;
39880;SDS011;25554;44.954;10.068;2022-09-03T22:18:05;16.60;;;14.63;;
39880;SDS011;25554;44.954;10.068;2022-09-03T22:23:41;19.58;;;16.63;;
39880;SDS011;25554;44.954;10.068;2022-09-03T22:26:39;18.67;;;16.80;;
39880;SDS011;25554;44.954;10.068;2022-09-03T22:36:46;18.15;;;16.40;;